sensor_id;sensor_type;location;lat;lon;timestamp;P1;durP1;ratioP1;P2;durP2;ratioP2
7104;SDS011;3594;42.152;24.714;2022-11-06T00:01:14;40.90;;;18.83;;
7104;SDS011;3594;42.152;24.714;2022-11-06T00:03:40;41.10;;;17.63;;
7104;SDS011;3594;42.152;24.714;2022-11-06T00:06:07;44.43;;;18.90;;
7104;SDS011;3594;42.152;24.714;2022-11-06T00:08:53;37.50;;;16.30;;
7104;SDS011;3594;42.152;24.714;2022-11-06T00:11:19;40.67;;;17.93;;
7104;SDS011;3594;42.152;24.714;2022-11-06T00:13:44;37.13;;;17.47;;
7104;SDS011;3594;42.152;24.714;2022-11-06T00:16:12;36.80;;;16.93;;
7104;SDS011;3594;42.152;24.714;2022-11-06T00:18:38;36.53;;;16.27;;
7104;SDS011;3594;42.152;24.714;2022-11-06T00:21:08;37.83;;;17.10;;
7104;SDS011;3594;42.152;24.714;2022-11-06T00:23:45;41.53;;;17.83;;
7104;SDS011;3594;42.152;24.714;2022-11-06T00:26:12;43.80;;;19.70;;
7104;SDS011;3594;42.152;24.714;2022-11-06T00:28:40;32.63;;;17.23;;
7104;SDS011;3594;42.152;24.714;2022-11-06T00:31:07;43.07;;;18.23;;
7104;SDS011;3594;42.152;24.714;2022-11-06T00:33:37;47.53;;;17.90;;
7104;SDS011;3594;42.152;24.714;2022-11-06T00:36:03;43.23;;;20.03;;
7104;SDS011;3594;42.152;24.714;2022-11-06T00:38:30;48.57;;;21.30;;
7104;SDS011;3594;42.152;24.714;2022-11-06T00:40:55;40.53;;;19.00;;
7104;SDS011;3594;42.152;24.714;2022-11-06T00:43:21;40.73;;;18.27;;
7104;SDS011;3594;42.152;24.714;2022-11-06T00:45:46;51.20;;;19.67;;
7104;SDS011;3594;42.152;24.714;2022-11-06T00:48:12;41.03;;;17.73;;
7104;SDS011;3594;42.152;24.714;2022-11-06T00:50:37;42.93;;;18.70;;
7104;SDS011;3594;42.152;24.714;2022-11-06T00:53:02;42.03;;;17.90;;
7104;SDS011;3594;42.152;24.714;2022-11-06T00:55:28;38.50;;;17.80;;
7104;SDS011;3594;42.152;24.714;2022-11-06T00:57:53;39.73;;;17.87;;
7104;SDS011;3594;42.152;24.714;2022-11-06T01:00:19;34.07;;;17.33;;
7104;SDS011;3594;42.152;24.714;2022-11-06T01:02:45;28.30;;;15.90;;
7104;SDS011;3594;42.152;24.714;2022-11-06T01:05:10;42.57;;;16.80;;
7104;SDS011;3594;42.152;24.714;2022-11-06T01:07:36;40.07;;;19.37;;
7104;SDS011;3594;42.152;24.714;2022-11-06T01:10:03;45.80;;;18.53;;
7104;SDS011;3594;42.152;24.714;2022-11-06T01:12:32;43.77;;;17.93;;
7104;SDS011;3594;42.152;24.714;2022-11-06T01:14:58;43.07;;;18.03;;
7104;SDS011;3594;42.152;24.714;2022-11-06T01:17:24;35.17;;;17.20;;
7104;SDS011;3594;42.152;24.714;2022-11-06T01:19:49;35.27;;;18.23;;
7104;SDS011;3594;42.152;24.714;2022-11-06T01:22:14;41.10;;;18.07;;
7104;SDS011;3594;42.152;24.714;2022-11-06T01:24:40;36.60;;;16.73;;
7104;SDS011;3594;42.152;24.714;2022-11-06T01:27:06;43.13;;;19.13;;
7104;SDS011;3594;42.152;24.714;2022-11-06T01:29:32;37.97;;;17.20;;
7104;SDS011;3594;42.152;24.714;2022-11-06T01:31:57;42.40;;;19.33;;
7104;SDS011;3594;42.152;24.714;2022-11-06T01:34:22;41.37;;;18.57;;
7104;SDS011;3594;42.152;24.714;2022-11-06T01:36:48;44.13;;;19.17;;
7104;SDS011;3594;42.152;24.714;2022-11-06T01:39:14;39.27;;;19.03;;
7104;SDS011;3594;42.152;24.714;2022-11-06T01:41:47;37.43;;;17.17;;
7104;SDS011;3594;42.152;24.714;2022-11-06T01:47:17;43.43;;;17.33;;
7104;SDS011;3594;42.152;24.714;2022-11-06T01:49:51;36.33;;;18.07;;
7104;SDS011;3594;42.152;24.714;2022-11-06T01:52:20;37.37;;;16.97;;
7104;SDS011;3594;42.152;24.714;2022-11-06T01:54:50;38.13;;;18.00;;
7104;SDS011;3594;42.152;24.714;2022-11-06T01:57:17;34.83;;;16.53;;
7104;SDS011;3594;42.152;24.714;2022-11-06T01:59:43;39.23;;;17.80;;
7104;SDS011;3594;42.152;24.714;2022-11-06T02:02:10;32.00;;;17.00;;
7104;SDS011;3594;42.152;24.714;2022-11-06T02:04:40;41.50;;;18.13;;
7104;SDS011;3594;42.152;24.714;2022-11-06T02:07:07;34.23;;;17.23;;
7104;SDS011;3594;42.152;24.714;2022-11-06T02:09:33;39.70;;;17.13;;
7104;SDS011;3594;42.152;24.714;2022-11-06T02:26:12;39.77;;;17.10;;
7104;SDS011;3594;42.152;24.714;2022-11-06T02:28:49;36.23;;;17.10;;
7104;SDS011;3594;42.152;24.714;2022-11-06T02:31:25;31.23;;;15.60;;
7104;SDS011;3594;42.152;24.714;2022-11-06T02:33:58;42.57;;;17.10;;
7104;SDS011;3594;42.152;24.714;2022-11-06T02:36:31;35.60;;;16.07;;
7104;SDS011;3594;42.152;24.714;2022-11-06T02:39:03;43.33;;;16.93;;
7104;SDS011;3594;42.152;24.714;2022-11-06T02:41:36;33.73;;;17.30;;
7104;SDS011;3594;42.152;24.714;2022-11-06T02:44:06;30.87;;;15.03;;
7104;SDS011;3594;42.152;24.714;2022-11-06T02:46:36;31.33;;;14.87;;
7104;SDS011;3594;42.152;24.714;2022-11-06T02:49:10;39.20;;;16.83;;
7104;SDS011;3594;42.152;24.714;2022-11-06T02:51:45;35.97;;;17.07;;
7104;SDS011;3594;42.152;24.714;2022-11-06T02:54:17;32.73;;;15.07;;
7104;SDS011;3594;42.152;24.714;2022-11-06T02:56:45;36.80;;;17.37;;
7104;SDS011;3594;42.152;24.714;2022-11-06T02:59:20;36.30;;;15.97;;
7104;SDS011;3594;42.152;24.714;2022-11-06T03:01:48;36.47;;;15.33;;
7104;SDS011;3594;42.152;24.714;2022-11-06T03:04:28;30.53;;;15.37;;
7104;SDS011;3594;42.152;24.714;2022-11-06T03:06:59;33.87;;;14.90;;
7104;SDS011;3594;42.152;24.714;2022-11-06T03:09:31;37.50;;;17.37;;
7104;SDS011;3594;42.152;24.714;2022-11-06T03:12:31;36.17;;;17.57;;
7104;SDS011;3594;42.152;24.714;2022-11-06T03:15:34;33.80;;;16.17;;
7104;SDS011;3594;42.152;24.714;2022-11-06T03:18:12;38.50;;;16.47;;
7104;SDS011;3594;42.152;24.714;2022-11-06T03:20:41;35.60;;;16.10;;
7104;SDS011;3594;42.152;24.714;2022-11-06T03:23:14;32.50;;;16.13;;
7104;SDS011;3594;42.152;24.714;2022-11-06T03:25:52;39.10;;;18.07;;
7104;SDS011;3594;42.152;24.714;2022-11-06T03:30:57;33.40;;;15.73;;
7104;SDS011;3594;42.152;24.714;2022-11-06T03:36:04;32.70;;;16.00;;
7104;SDS011;3594;42.152;24.714;2022-11-06T03:38:39;25.93;;;13.87;;
7104;SDS011;3594;42.152;24.714;2022-11-06T03:41:12;35.90;;;16.80;;
7104;SDS011;3594;42.152;24.714;2022-11-06T03:43:44;37.90;;;17.77;;
7104;SDS011;3594;42.152;24.714;2022-11-06T03:46:14;40.60;;;16.50;;
7104;SDS011;3594;42.152;24.714;2022-11-06T03:48:54;36.27;;;17.37;;
7104;SDS011;3594;42.152;24.714;2022-11-06T03:51:37;27.20;;;15.47;;
7104;SDS011;3594;42.152;24.714;2022-11-06T03:54:25;39.83;;;16.73;;
7104;SDS011;3594;42.152;24.714;2022-11-06T03:56:56;33.87;;;14.83;;
7104;SDS011;3594;42.152;24.714;2022-11-06T03:59:31;35.63;;;15.30;;
7104;SDS011;3594;42.152;24.714;2022-11-06T04:02:00;29.77;;;14.47;;
7104;SDS011;3594;42.152;24.714;2022-11-06T04:04:28;39.40;;;15.23;;
7104;SDS011;3594;42.152;24.714;2022-11-06T04:07:01;33.50;;;15.03;;
7104;SDS011;3594;42.152;24.714;2022-11-06T04:09:32;36.50;;;15.87;;
7104;SDS011;3594;42.152;24.714;2022-11-06T04:12:21;36.67;;;15.70;;
7104;SDS011;3594;42.152;24.714;2022-11-06T04:15:11;27.77;;;14.60;;
7104;SDS011;3594;42.152;24.714;2022-11-06T04:17:39;37.40;;;16.23;;
7104;SDS011;3594;42.152;24.714;2022-11-06T04:20:06;31.50;;;15.53;;
7104;SDS011;3594;42.152;24.714;2022-11-06T04:28:33;36.97;;;15.73;;
7104;SDS011;3594;42.152;24.714;2022-11-06T04:33:47;33.50;;;14.97;;
7104;SDS011;3594;42.152;24.714;2022-11-06T04:39:16;37.23;;;17.40;;
7104;SDS011;3594;42.152;24.714;2022-11-06T04:44:33;32.47;;;16.00;;
7104;SDS011;3594;42.152;24.714;2022-11-06T04:47:05;28.53;;;16.03;;
7104;SDS011;3594;42.152;24.714;2022-11-06T04:49:33;31.87;;;16.33;;
7104;SDS011;3594;42.152;24.714;2022-11-06T04:52:01;29.87;;;15.30;;
7104;SDS011;3594;42.152;24.714;2022-11-06T04:54:31;33.93;;;15.37;;
7104;SDS011;3594;42.152;24.714;2022-11-06T04:57:00;33.07;;;16.47;;
7104;SDS011;3594;42.152;24.714;2022-11-06T04:59:26;37.00;;;15.33;;
7104;SDS011;3594;42.152;24.714;2022-11-06T05:01:55;34.87;;;15.57;;
7104;SDS011;3594;42.152;24.714;2022-11-06T05:04:21;34.80;;;17.43;;
7104;SDS011;3594;42.152;24.714;2022-11-06T05:06:46;34.73;;;16.90;;
7104;SDS011;3594;42.152;24.714;2022-11-06T05:09:11;42.43;;;18.23;;
7104;SDS011;3594;42.152;24.714;2022-11-06T05:11:37;38.83;;;16.30;;
7104;SDS011;3594;42.152;24.714;2022-11-06T05:14:02;39.60;;;16.10;;
7104;SDS011;3594;42.152;24.714;2022-11-06T05:16:28;32.57;;;16.70;;
7104;SDS011;3594;42.152;24.714;2022-11-06T05:18:53;36.77;;;16.80;;
7104;SDS011;3594;42.152;24.714;2022-11-06T05:21:19;35.60;;;17.47;;
7104;SDS011;3594;42.152;24.714;2022-11-06T05:24:02;38.70;;;16.23;;
7104;SDS011;3594;42.152;24.714;2022-11-06T05:26:28;30.60;;;15.47;;
7104;SDS011;3594;42.152;24.714;2022-11-06T05:28:54;37.50;;;16.23;;
7104;SDS011;3594;42.152;24.714;2022-11-06T05:31:19;35.03;;;17.07;;
7104;SDS011;3594;42.152;24.714;2022-11-06T05:33:44;41.33;;;17.20;;
7104;SDS011;3594;42.152;24.714;2022-11-06T05:36:10;35.83;;;16.60;;
7104;SDS011;3594;42.152;24.714;2022-11-06T05:38:35;33.77;;;16.23;;
7104;SDS011;3594;42.152;24.714;2022-11-06T05:41:01;44.57;;;16.87;;
7104;SDS011;3594;42.152;24.714;2022-11-06T05:43:26;30.80;;;16.47;;
7104;SDS011;3594;42.152;24.714;2022-11-06T05:45:52;31.13;;;16.77;;
7104;SDS011;3594;42.152;24.714;2022-11-06T05:48:17;44.10;;;18.20;;
7104;SDS011;3594;42.152;24.714;2022-11-06T05:50:42;34.83;;;16.57;;
7104;SDS011;3594;42.152;24.714;2022-11-06T05:53:08;42.37;;;18.63;;
7104;SDS011;3594;42.152;24.714;2022-11-06T05:55:33;29.57;;;16.43;;
7104;SDS011;3594;42.152;24.714;2022-11-06T05:57:59;46.97;;;17.83;;
7104;SDS011;3594;42.152;24.714;2022-11-06T06:00:24;36.37;;;15.53;;
7104;SDS011;3594;42.152;24.714;2022-11-06T06:02:50;34.80;;;16.03;;
7104;SDS011;3594;42.152;24.714;2022-11-06T06:05:15;38.57;;;17.03;;
7104;SDS011;3594;42.152;24.714;2022-11-06T06:07:41;36.50;;;16.70;;
7104;SDS011;3594;42.152;24.714;2022-11-06T06:10:07;32.63;;;15.57;;
7104;SDS011;3594;42.152;24.714;2022-11-06T06:12:33;31.87;;;15.90;;
7104;SDS011;3594;42.152;24.714;2022-11-06T06:14:58;33.03;;;16.27;;
7104;SDS011;3594;42.152;24.714;2022-11-06T06:17:24;47.15;;;18.05;;
7104;SDS011;3594;42.152;24.714;2022-11-06T06:19:50;30.07;;;16.53;;
7104;SDS011;3594;42.152;24.714;2022-11-06T06:22:15;41.73;;;16.80;;
7104;SDS011;3594;42.152;24.714;2022-11-06T06:24:41;29.67;;;15.57;;
7104;SDS011;3594;42.152;24.714;2022-11-06T06:27:07;37.13;;;17.53;;
7104;SDS011;3594;42.152;24.714;2022-11-06T06:29:32;33.15;;;16.27;;
7104;SDS011;3594;42.152;24.714;2022-11-06T06:31:58;31.67;;;14.90;;
7104;SDS011;3594;42.152;24.714;2022-11-06T06:34:23;34.50;;;16.17;;
7104;SDS011;3594;42.152;24.714;2022-11-06T06:36:49;31.65;;;16.63;;
7104;SDS011;3594;42.152;24.714;2022-11-06T06:39:16;36.85;;;17.58;;
7104;SDS011;3594;42.152;24.714;2022-11-06T06:41:43;41.15;;;16.83;;
7104;SDS011;3594;42.152;24.714;2022-11-06T06:44:09;35.58;;;17.77;;
7104;SDS011;3594;42.152;24.714;2022-11-06T06:46:34;33.08;;;15.82;;
7104;SDS011;3594;42.152;24.714;2022-11-06T06:48:59;32.20;;;15.73;;
7104;SDS011;3594;42.152;24.714;2022-11-06T06:51:25;34.53;;;16.05;;
7104;SDS011;3594;42.152;24.714;2022-11-06T06:53:50;33.88;;;15.80;;
7104;SDS011;3594;42.152;24.714;2022-11-06T06:56:16;35.58;;;16.05;;
7104;SDS011;3594;42.152;24.714;2022-11-06T06:58:41;38.42;;;16.85;;
7104;SDS011;3594;42.152;24.714;2022-11-06T07:01:06;34.67;;;16.98;;
7104;SDS011;3594;42.152;24.714;2022-11-06T07:03:37;42.67;;;17.63;;
7104;SDS011;3594;42.152;24.714;2022-11-06T07:06:03;37.53;;;17.85;;
7104;SDS011;3594;42.152;24.714;2022-11-06T07:08:29;33.38;;;16.20;;
7104;SDS011;3594;42.152;24.714;2022-11-06T07:11:01;35.78;;;16.23;;
7104;SDS011;3594;42.152;24.714;2022-11-06T07:13:29;36.88;;;16.17;;
7104;SDS011;3594;42.152;24.714;2022-11-06T07:15:55;34.75;;;16.05;;
7104;SDS011;3594;42.152;24.714;2022-11-06T07:18:20;37.50;;;16.42;;
7104;SDS011;3594;42.152;24.714;2022-11-06T07:20:46;33.88;;;15.30;;
7104;SDS011;3594;42.152;24.714;2022-11-06T07:23:11;35.80;;;14.00;;
7104;SDS011;3594;42.152;24.714;2022-11-06T07:25:37;24.55;;;13.05;;
7104;SDS011;3594;42.152;24.714;2022-11-06T07:28:03;30.45;;;14.18;;
7104;SDS011;3594;42.152;24.714;2022-11-06T07:30:30;26.65;;;12.75;;
7104;SDS011;3594;42.152;24.714;2022-11-06T07:32:58;28.80;;;13.02;;
7104;SDS011;3594;42.152;24.714;2022-11-06T07:35:25;30.73;;;12.93;;
7104;SDS011;3594;42.152;24.714;2022-11-06T07:37:50;33.42;;;13.57;;
7104;SDS011;3594;42.152;24.714;2022-11-06T07:40:16;29.88;;;12.98;;
7104;SDS011;3594;42.152;24.714;2022-11-06T07:42:41;32.00;;;13.85;;
7104;SDS011;3594;42.152;24.714;2022-11-06T07:45:07;27.20;;;13.85;;
7104;SDS011;3594;42.152;24.714;2022-11-06T07:47:33;25.23;;;12.43;;
7104;SDS011;3594;42.152;24.714;2022-11-06T07:49:58;29.15;;;14.20;;
7104;SDS011;3594;42.152;24.714;2022-11-06T07:52:24;24.40;;;12.00;;
7104;SDS011;3594;42.152;24.714;2022-11-06T07:54:49;29.25;;;12.73;;
7104;SDS011;3594;42.152;24.714;2022-11-06T07:57:15;25.30;;;12.68;;
7104;SDS011;3594;42.152;24.714;2022-11-06T07:59:40;28.70;;;12.38;;
7104;SDS011;3594;42.152;24.714;2022-11-06T08:02:09;30.70;;;13.88;;
7104;SDS011;3594;42.152;24.714;2022-11-06T08:04:36;31.65;;;12.48;;
7104;SDS011;3594;42.152;24.714;2022-11-06T08:07:02;23.92;;;12.30;;
7104;SDS011;3594;42.152;24.714;2022-11-06T08:09:27;24.48;;;11.82;;
7104;SDS011;3594;42.152;24.714;2022-11-06T08:11:53;22.48;;;12.20;;
7104;SDS011;3594;42.152;24.714;2022-11-06T08:14:18;23.65;;;11.70;;
7104;SDS011;3594;42.152;24.714;2022-11-06T08:16:44;22.05;;;11.90;;
7104;SDS011;3594;42.152;24.714;2022-11-06T08:19:09;25.90;;;11.35;;
7104;SDS011;3594;42.152;24.714;2022-11-06T08:21:34;25.25;;;11.43;;
7104;SDS011;3594;42.152;24.714;2022-11-06T08:24:00;22.10;;;10.85;;
7104;SDS011;3594;42.152;24.714;2022-11-06T08:26:25;28.08;;;11.82;;
7104;SDS011;3594;42.152;24.714;2022-11-06T08:28:51;26.05;;;12.68;;
7104;SDS011;3594;42.152;24.714;2022-11-06T08:31:18;25.88;;;11.32;;
7104;SDS011;3594;42.152;24.714;2022-11-06T08:33:45;25.58;;;12.40;;
7104;SDS011;3594;42.152;24.714;2022-11-06T08:36:10;23.35;;;11.23;;
7104;SDS011;3594;42.152;24.714;2022-11-06T08:38:36;23.58;;;10.93;;
7104;SDS011;3594;42.152;24.714;2022-11-06T08:41:05;25.05;;;11.25;;
7104;SDS011;3594;42.152;24.714;2022-11-06T08:43:32;25.88;;;11.07;;
7104;SDS011;3594;42.152;24.714;2022-11-06T08:45:58;28.38;;;13.10;;
7104;SDS011;3594;42.152;24.714;2022-11-06T08:48:24;32.15;;;11.98;;
7104;SDS011;3594;42.152;24.714;2022-11-06T08:50:50;31.23;;;13.93;;
7104;SDS011;3594;42.152;24.714;2022-11-06T08:53:15;27.50;;;12.73;;
7104;SDS011;3594;42.152;24.714;2022-11-06T08:55:41;31.02;;;11.43;;
7104;SDS011;3594;42.152;24.714;2022-11-06T08:58:06;23.63;;;11.18;;
7104;SDS011;3594;42.152;24.714;2022-11-06T09:00:32;20.88;;;11.07;;
7104;SDS011;3594;42.152;24.714;2022-11-06T09:03:01;24.60;;;11.38;;
7104;SDS011;3594;42.152;24.714;2022-11-06T09:05:29;23.23;;;11.93;;
7104;SDS011;3594;42.152;24.714;2022-11-06T09:07:56;21.20;;;11.30;;
7104;SDS011;3594;42.152;24.714;2022-11-06T09:10:22;27.88;;;11.85;;
7104;SDS011;3594;42.152;24.714;2022-11-06T09:12:47;30.73;;;11.05;;
7104;SDS011;3594;42.152;24.714;2022-11-06T09:15:13;21.75;;;10.65;;
7104;SDS011;3594;42.152;24.714;2022-11-06T09:17:45;24.98;;;11.10;;
7104;SDS011;3594;42.152;24.714;2022-11-06T09:20:13;21.00;;;11.40;;
7104;SDS011;3594;42.152;24.714;2022-11-06T09:22:39;26.38;;;11.60;;
7104;SDS011;3594;42.152;24.714;2022-11-06T09:25:05;23.25;;;11.25;;
7104;SDS011;3594;42.152;24.714;2022-11-06T09:27:31;31.48;;;13.50;;
7104;SDS011;3594;42.152;24.714;2022-11-06T09:29:57;27.30;;;13.63;;
7104;SDS011;3594;42.152;24.714;2022-11-06T09:32:23;27.55;;;14.60;;
7104;SDS011;3594;42.152;24.714;2022-11-06T09:34:49;32.83;;;14.07;;
7104;SDS011;3594;42.152;24.714;2022-11-06T09:37:15;28.45;;;15.45;;
7104;SDS011;3594;42.152;24.714;2022-11-06T09:39:40;30.92;;;15.15;;
7104;SDS011;3594;42.152;24.714;2022-11-06T09:45:06;29.75;;;14.48;;
7104;SDS011;3594;42.152;24.714;2022-11-06T09:47:38;28.80;;;15.38;;
7104;SDS011;3594;42.152;24.714;2022-11-06T09:50:11;31.33;;;15.13;;
7104;SDS011;3594;42.152;24.714;2022-11-06T09:52:45;27.80;;;14.55;;
7104;SDS011;3594;42.152;24.714;2022-11-06T09:58:23;26.65;;;13.18;;
7104;SDS011;3594;42.152;24.714;2022-11-06T10:00:52;32.70;;;13.63;;
7104;SDS011;3594;42.152;24.714;2022-11-06T10:03:40;31.35;;;16.17;;
7104;SDS011;3594;42.152;24.714;2022-11-06T10:06:07;25.58;;;13.20;;
7104;SDS011;3594;42.152;24.714;2022-11-06T10:08:33;26.20;;;13.85;;
7104;SDS011;3594;42.152;24.714;2022-11-06T10:13:54;32.08;;;14.60;;
7104;SDS011;3594;42.152;24.714;2022-11-06T10:16:33;24.83;;;12.73;;
7104;SDS011;3594;42.152;24.714;2022-11-06T10:19:19;28.02;;;12.35;;
7104;SDS011;3594;42.152;24.714;2022-11-06T10:27:41;29.42;;;11.40;;
7104;SDS011;3594;42.152;24.714;2022-11-06T10:30:36;18.42;;;10.90;;
7104;SDS011;3594;42.152;24.714;2022-11-06T10:35:53;24.73;;;11.93;;
7104;SDS011;3594;42.152;24.714;2022-11-06T10:38:33;32.88;;;13.32;;
7104;SDS011;3594;42.152;24.714;2022-11-06T10:41:01;25.88;;;13.52;;
7104;SDS011;3594;42.152;24.714;2022-11-06T10:43:31;27.45;;;14.18;;
7104;SDS011;3594;42.152;24.714;2022-11-06T10:48:57;26.23;;;13.13;;
7104;SDS011;3594;42.152;24.714;2022-11-06T10:59:20;27.63;;;13.98;;
7104;SDS011;3594;42.152;24.714;2022-11-06T11:01:46;29.52;;;13.05;;
7104;SDS011;3594;42.152;24.714;2022-11-06T11:04:11;28.77;;;12.80;;
7104;SDS011;3594;42.152;24.714;2022-11-06T11:06:37;26.00;;;13.52;;
7104;SDS011;3594;42.152;24.714;2022-11-06T11:11:52;25.92;;;12.82;;
7104;SDS011;3594;42.152;24.714;2022-11-06T11:14:22;26.25;;;13.55;;
7104;SDS011;3594;42.152;24.714;2022-11-06T11:16:51;30.67;;;12.50;;
7104;SDS011;3594;42.152;24.714;2022-11-06T11:19:34;21.75;;;12.10;;
7104;SDS011;3594;42.152;24.714;2022-11-06T11:22:02;22.65;;;10.20;;
7104;SDS011;3594;42.152;24.714;2022-11-06T11:24:29;26.88;;;12.95;;
7104;SDS011;3594;42.152;24.714;2022-11-06T11:27:02;24.48;;;12.07;;
7104;SDS011;3594;42.152;24.714;2022-11-06T11:29:43;25.23;;;12.23;;
7104;SDS011;3594;42.152;24.714;2022-11-06T11:32:15;28.38;;;12.40;;
7104;SDS011;3594;42.152;24.714;2022-11-06T11:34:43;20.00;;;11.10;;
7104;SDS011;3594;42.152;24.714;2022-11-06T11:37:20;24.50;;;11.70;;
7104;SDS011;3594;42.152;24.714;2022-11-06T11:39:52;28.42;;;12.45;;
7104;SDS011;3594;42.152;24.714;2022-11-06T11:42:27;22.70;;;10.82;;
7104;SDS011;3594;42.152;24.714;2022-11-06T11:47:34;21.92;;;11.35;;
7104;SDS011;3594;42.152;24.714;2022-11-06T11:52:58;24.88;;;12.00;;
7104;SDS011;3594;42.152;24.714;2022-11-06T11:55:30;22.58;;;11.40;;
7104;SDS011;3594;42.152;24.714;2022-11-06T11:58:02;23.15;;;11.70;;
7104;SDS011;3594;42.152;24.714;2022-11-06T12:00:28;26.85;;;11.80;;
7104;SDS011;3594;42.152;24.714;2022-11-06T12:03:00;22.75;;;11.82;;
7104;SDS011;3594;42.152;24.714;2022-11-06T12:05:38;24.30;;;12.40;;
7104;SDS011;3594;42.152;24.714;2022-11-06T12:08:05;31.05;;;12.80;;
7104;SDS011;3594;42.152;24.714;2022-11-06T12:10:39;25.17;;;12.20;;
7104;SDS011;3594;42.152;24.714;2022-11-06T12:13:12;31.17;;;13.15;;
7104;SDS011;3594;42.152;24.714;2022-11-06T12:18:22;24.75;;;12.10;;
7104;SDS011;3594;42.152;24.714;2022-11-06T12:21:05;25.05;;;13.70;;
7104;SDS011;3594;42.152;24.714;2022-11-06T12:23:42;27.02;;;12.52;;
7104;SDS011;3594;42.152;24.714;2022-11-06T12:26:35;31.20;;;13.75;;
7104;SDS011;3594;42.152;24.714;2022-11-06T12:29:14;23.50;;;12.57;;
7104;SDS011;3594;42.152;24.714;2022-11-06T12:34:27;23.85;;;11.50;;
7104;SDS011;3594;42.152;24.714;2022-11-06T12:37:01;23.00;;;12.02;;
7104;SDS011;3594;42.152;24.714;2022-11-06T12:39:38;22.63;;;11.48;;
7104;SDS011;3594;42.152;24.714;2022-11-06T12:42:10;28.90;;;11.32;;
7104;SDS011;3594;42.152;24.714;2022-11-06T12:44:37;30.08;;;11.88;;
7104;SDS011;3594;42.152;24.714;2022-11-06T12:47:07;24.38;;;11.93;;
7104;SDS011;3594;42.152;24.714;2022-11-06T12:49:54;24.90;;;12.02;;
7104;SDS011;3594;42.152;24.714;2022-11-06T13:01:20;23.92;;;10.93;;
7104;SDS011;3594;42.152;24.714;2022-11-06T13:03:58;24.15;;;11.75;;
7104;SDS011;3594;42.152;24.714;2022-11-06T13:09:23;21.48;;;10.73;;
7104;SDS011;3594;42.152;24.714;2022-11-06T13:17:29;25.35;;;11.55;;
7104;SDS011;3594;42.152;24.714;2022-11-06T13:20:05;29.75;;;10.50;;
7104;SDS011;3594;42.152;24.714;2022-11-06T13:25:38;25.65;;;11.85;;
7104;SDS011;3594;42.152;24.714;2022-11-06T13:31:06;20.27;;;9.50;;
7104;SDS011;3594;42.152;24.714;2022-11-06T13:33:35;18.13;;;10.25;;
7104;SDS011;3594;42.152;24.714;2022-11-06T13:36:20;24.13;;;12.48;;
7104;SDS011;3594;42.152;24.714;2022-11-06T13:38:51;21.45;;;10.10;;
7104;SDS011;3594;42.152;24.714;2022-11-06T13:43:52;19.98;;;10.10;;
7104;SDS011;3594;42.152;24.714;2022-11-06T13:46:36;21.95;;;10.45;;
7104;SDS011;3594;42.152;24.714;2022-11-06T14:03:13;20.13;;;11.20;;
7104;SDS011;3594;42.152;24.714;2022-11-06T14:08:30;16.92;;;9.82;;
7104;SDS011;3594;42.152;24.714;2022-11-06T14:13:37;21.23;;;10.35;;
7104;SDS011;3594;42.152;24.714;2022-11-06T14:18:30;23.15;;;11.05;;
7104;SDS011;3594;42.152;24.714;2022-11-06T14:34:26;25.65;;;11.93;;
7104;SDS011;3594;42.152;24.714;2022-11-06T14:36:56;28.75;;;13.57;;
7104;SDS011;3594;42.152;24.714;2022-11-06T14:42:33;26.85;;;11.82;;
7104;SDS011;3594;42.152;24.714;2022-11-06T14:52:45;23.60;;;11.52;;
7104;SDS011;3594;42.152;24.714;2022-11-06T14:57:54;28.42;;;11.75;;
7104;SDS011;3594;42.152;24.714;2022-11-06T15:00:40;22.80;;;11.63;;
7104;SDS011;3594;42.152;24.714;2022-11-06T15:03:44;21.60;;;10.40;;
7104;SDS011;3594;42.152;24.714;2022-11-06T15:14:50;19.25;;;10.20;;
7104;SDS011;3594;42.152;24.714;2022-11-06T15:16:46;25.25;;;12.43;;
7104;SDS011;3594;42.152;24.714;2022-11-06T15:19:19;25.58;;;12.60;;
7104;SDS011;3594;42.152;24.714;2022-11-06T15:24:54;29.13;;;12.27;;
7104;SDS011;3594;42.152;24.714;2022-11-06T15:27:32;24.27;;;12.40;;
7104;SDS011;3594;42.152;24.714;2022-11-06T15:30:03;25.33;;;13.77;;
7104;SDS011;3594;42.152;24.714;2022-11-06T15:32:30;28.08;;;13.85;;
7104;SDS011;3594;42.152;24.714;2022-11-06T15:37:36;26.80;;;12.18;;
7104;SDS011;3594;42.152;24.714;2022-11-06T15:40:19;23.20;;;11.43;;
7104;SDS011;3594;42.152;24.714;2022-11-06T15:42:47;24.75;;;12.95;;
7104;SDS011;3594;42.152;24.714;2022-11-06T15:47:42;30.27;;;14.90;;
7104;SDS011;3594;42.152;24.714;2022-11-06T15:50:27;32.65;;;15.35;;
7104;SDS011;3594;42.152;24.714;2022-11-06T15:52:53;30.08;;;12.75;;
7104;SDS011;3594;42.152;24.714;2022-11-06T15:55:41;23.67;;;11.82;;
7104;SDS011;3594;42.152;24.714;2022-11-06T16:00:46;25.77;;;11.63;;
7104;SDS011;3594;42.152;24.714;2022-11-06T16:03:22;21.58;;;11.48;;
7104;SDS011;3594;42.152;24.714;2022-11-06T16:05:49;25.20;;;12.98;;
7104;SDS011;3594;42.152;24.714;2022-11-06T16:08:17;28.77;;;12.48;;
7104;SDS011;3594;42.152;24.714;2022-11-06T16:10:44;28.75;;;12.38;;
7104;SDS011;3594;42.152;24.714;2022-11-06T16:13:13;24.02;;;12.70;;
7104;SDS011;3594;42.152;24.714;2022-11-06T16:20:59;27.50;;;11.23;;
7104;SDS011;3594;42.152;24.714;2022-11-06T16:23:37;22.75;;;11.82;;
7104;SDS011;3594;42.152;24.714;2022-11-06T16:26:10;26.88;;;11.45;;
7104;SDS011;3594;42.152;24.714;2022-11-06T16:28:41;30.05;;;12.70;;
7104;SDS011;3594;42.152;24.714;2022-11-06T16:31:13;23.67;;;12.70;;
7104;SDS011;3594;42.152;24.714;2022-11-06T16:34:04;28.67;;;13.27;;
7104;SDS011;3594;42.152;24.714;2022-11-06T16:36:51;34.10;;;13.00;;
7104;SDS011;3594;42.152;24.714;2022-11-06T16:49:38;26.60;;;12.30;;
7104;SDS011;3594;42.152;24.714;2022-11-06T16:54:49;26.52;;;12.20;;
7104;SDS011;3594;42.152;24.714;2022-11-06T16:57:22;24.80;;;11.85;;
7104;SDS011;3594;42.152;24.714;2022-11-06T17:00:04;26.25;;;12.15;;
7104;SDS011;3594;42.152;24.714;2022-11-06T17:02:36;25.15;;;11.73;;
7104;SDS011;3594;42.152;24.714;2022-11-06T17:05:12;23.55;;;12.65;;
7104;SDS011;3594;42.152;24.714;2022-11-06T17:07:39;25.02;;;11.98;;
7104;SDS011;3594;42.152;24.714;2022-11-06T17:13:08;20.98;;;11.05;;
7104;SDS011;3594;42.152;24.714;2022-11-06T17:15:55;31.38;;;12.95;;
7104;SDS011;3594;42.152;24.714;2022-11-06T17:18:26;27.70;;;12.07;;
7104;SDS011;3594;42.152;24.714;2022-11-06T17:21:00;24.55;;;11.88;;
7104;SDS011;3594;42.152;24.714;2022-11-06T17:23:28;31.75;;;13.32;;
7104;SDS011;3594;42.152;24.714;2022-11-06T17:26:01;25.33;;;12.48;;
7104;SDS011;3594;42.152;24.714;2022-11-06T17:28:30;22.65;;;12.10;;
7104;SDS011;3594;42.152;24.714;2022-11-06T17:30:56;26.02;;;13.52;;
7104;SDS011;3594;42.152;24.714;2022-11-06T17:33:21;23.10;;;12.13;;
7104;SDS011;3594;42.152;24.714;2022-11-06T17:35:47;23.85;;;12.90;;
7104;SDS011;3594;42.152;24.714;2022-11-06T17:38:15;26.55;;;12.65;;
7104;SDS011;3594;42.152;24.714;2022-11-06T17:40:42;22.73;;;11.65;;
7104;SDS011;3594;42.152;24.714;2022-11-06T17:43:08;25.55;;;12.13;;
7104;SDS011;3594;42.152;24.714;2022-11-06T17:45:34;29.58;;;14.02;;
7104;SDS011;3594;42.152;24.714;2022-11-06T17:47:59;26.30;;;13.30;;
7104;SDS011;3594;42.152;24.714;2022-11-06T17:50:24;23.35;;;12.82;;
7104;SDS011;3594;42.152;24.714;2022-11-06T17:52:50;30.83;;;13.50;;
7104;SDS011;3594;42.152;24.714;2022-11-06T17:55:16;28.63;;;13.18;;
7104;SDS011;3594;42.152;24.714;2022-11-06T17:57:41;26.50;;;14.13;;
7104;SDS011;3594;42.152;24.714;2022-11-06T18:00:07;23.15;;;12.52;;
7104;SDS011;3594;42.152;24.714;2022-11-06T18:02:34;28.20;;;12.38;;
7104;SDS011;3594;42.152;24.714;2022-11-06T18:05:00;30.15;;;12.80;;